Time;durP1;ratioP1;P1;durP2;ratioP2;P2;SDS_P1;SDS_P2;PMS_P1;PMS_P2;Temp;Humidity;BMP_temperature;BMP_pressure;BME280_temperature;BME280_humidity;BME280_pressure;Samples;Min_cycle;Max_cycle;Signal;HPM_P1;HPM_P2
2023/03/15 00:01:32;;;;;;;8.13;3.57;;;6.40;99.90;;;;;;5032574;28;20225;-32
2023/03/15 00:03:59;;;;;;;10.27;4.40;;;6.40;99.90;;;;;;5063070;28;20690;-33
2023/03/15 00:06:32;;;;;;;7.80;3.60;;;6.50;99.90;;;;;;5052938;28;20249;-32
2023/03/15 00:09:00;;;;;;;10.97;3.57;;;6.30;99.90;;;;;;5065462;28;20439;-32
2023/03/15 00:11:29;;;;;;;8.30;3.20;;;6.40;99.90;;;;;;5055371;28;20270;-32
2023/03/15 00:14:01;;;;;;;8.47;3.47;;;6.30;99.90;;;;;;5043948;28;20208;-32
2023/03/15 00:16:33;;;;;;;7.53;2.97;;;6.30;99.90;;;;;;5037832;28;20231;-32
2023/03/15 00:19:02;;;;;;;6.53;2.70;;;6.20;99.90;;;;;;5058542;28;20315;-35
2023/03/15 00:21:33;;;;;;;7.67;3.07;;;6.20;99.90;;;;;;5025367;28;20303;-32
2023/03/15 00:24:00;;;;;;;3.90;2.37;;;6.20;99.90;;;;;;5037985;28;20705;-32
2023/03/15 00:26:30;;;;;;;6.47;2.90;;;6.10;99.90;;;;;;5066805;28;20202;-33
2023/03/15 00:29:02;;;;;;;8.87;3.13;;;6.10;99.90;;;;;;5049227;28;20215;-32
2023/03/15 00:31:29;;;;;;;6.27;2.90;;;6.10;99.90;;;;;;5047581;28;20202;-32
2023/03/15 00:33:59;;;;;;;6.10;3.20;;;6.10;99.90;;;;;;5047229;28;20662;-32
2023/03/15 00:36:31;;;;;;;6.67;2.87;;;6.10;99.90;;;;;;5049105;28;20757;-32
2023/03/15 00:39:03;;;;;;;5.33;3.43;;;6.10;99.90;;;;;;5048806;28;20211;-32
2023/03/15 00:41:32;;;;;;;7.63;3.50;;;6.10;99.90;;;;;;5064124;28;20199;-32
2023/03/15 00:44:03;;;;;;;5.33;3.07;;;6.10;99.90;;;;;;5048407;28;20726;-32
2023/03/15 00:46:30;;;;;;;6.90;3.47;;;6.20;99.90;;;;;;5046976;28;20504;-32
2023/03/15 00:48:57;;;;;;;8.43;3.60;;;6.20;99.90;;;;;;5047361;28;20192;-32
2023/03/15 00:51:29;;;;;;;12.40;3.70;;;6.20;99.90;;;;;;5048597;28;20192;-32
2023/03/15 00:53:58;;;;;;;5.80;3.33;;;6.20;99.90;;;;;;5046374;28;20240;-32
2023/03/15 00:56:28;;;;;;;8.00;3.90;;;6.20;99.90;;;;;;5046898;28;20580;-32
2023/03/15 00:58:56;;;;;;;6.03;3.40;;;6.20;99.90;;;;;;5048046;28;20277;-32
2023/03/15 01:01:30;;;;;;;7.30;3.70;;;6.30;99.90;;;;;;5046420;28;20664;-32
2023/03/15 01:04:01;;;;;;;9.07;3.73;;;6.30;99.90;;;;;;5046597;28;20273;-32
2023/03/15 01:06:32;;;;;;;10.20;4.07;;;6.30;99.90;;;;;;5051752;28;20220;-33
2023/03/15 01:09:02;;;;;;;5.70;4.13;;;6.30;99.90;;;;;;5047316;28;20203;-33
2023/03/15 01:11:29;;;;;;;8.93;4.17;;;6.30;99.90;;;;;;5062574;28;20603;-32
2023/03/15 01:13:59;;;;;;;8.90;4.10;;;6.40;99.90;;;;;;5040685;28;20761;-32
2023/03/15 01:16:28;;;;;;;8.57;3.73;;;6.40;99.90;;;;;;5049495;28;20208;-32
2023/03/15 01:18:59;;;;;;;6.60;4.10;;;6.40;99.90;;;;;;5048361;28;20215;-32
2023/03/15 01:21:31;;;;;;;6.07;4.00;;;6.50;99.90;;;;;;5061232;28;20266;-32
2023/03/15 01:24:02;;;;;;;6.00;3.93;;;6.50;99.90;;;;;;5045658;28;20228;-32
2023/03/15 01:26:30;;;;;;;9.37;3.90;;;6.50;99.90;;;;;;5035170;28;20206;-32
2023/03/15 01:29:02;;;;;;;10.30;3.80;;;6.60;99.90;;;;;;5019101;28;20280;-32
2023/03/15 01:31:31;;;;;;;8.90;3.80;;;6.60;99.90;;;;;;5037847;28;20261;-32
2023/03/15 01:34:03;;;;;;;7.17;2.73;;;6.60;99.90;;;;;;5038097;28;20583;-32
2023/03/15 01:36:35;;;;;;;6.47;2.67;;;6.60;99.90;;;;;;5044677;28;20197;-32
2023/03/15 01:39:02;;;;;;;5.40;2.40;;;6.60;99.90;;;;;;5040965;28;20324;-32
2023/03/15 01:41:32;;;;;;;2.63;1.60;;;6.60;99.90;;;;;;5024247;28;20227;-31
2023/03/15 01:44:01;;;;;;;2.70;1.30;;;6.60;99.90;;;;;;5064971;28;20619;-32
2023/03/15 01:46:35;;;;;;;4.37;1.27;;;6.60;99.90;;;;;;5057073;28;20224;-32
2023/03/15 01:49:31;;;;;;;3.17;1.00;;;6.60;99.90;;;;;;5030160;28;20208;-32
2023/03/15 01:52:06;;;;;;;2.93;0.90;;;6.60;99.90;;;;;;5032195;28;20205;-32
2023/03/15 01:54:49;;;;;;;1.23;0.60;;;6.60;99.90;;;;;;5026545;28;20367;-31
2023/03/15 01:57:37;;;;;;;1.60;0.60;;;6.60;99.90;;;;;;5044954;28;20203;-32
2023/03/15 02:00:15;;;;;;;1.10;0.67;;;6.50;99.90;;;;;;5043766;28;20208;-32
2023/03/15 02:03:06;;;;;;;0.97;0.60;;;6.50;99.90;;;;;;5046807;28;20211;-31
2023/03/15 02:05:44;;;;;;;1.40;0.70;;;6.60;99.90;;;;;;5049103;28;20719;-32
2023/03/15 02:08:19;;;;;;;3.97;0.90;;;6.50;99.90;;;;;;5047644;28;20694;-32
2023/03/15 02:10:55;;;;;;;1.47;0.50;;;6.50;99.90;;;;;;5044090;28;20638;-32
2023/03/15 02:13:27;;;;;;;0.50;0.50;;;6.50;99.90;;;;;;5047456;28;20264;-32
2023/03/15 02:15:58;;;;;;;1.30;0.60;;;6.50;99.90;;;;;;5046207;28;20627;-32
2023/03/15 02:18:27;;;;;;;0.90;0.70;;;6.50;99.90;;;;;;5044063;28;20196;-32
2023/03/15 02:20:56;;;;;;;2.47;0.80;;;6.50;99.90;;;;;;5045437;28;20671;-32
2023/03/15 02:23:30;;;;;;;1.87;0.87;;;6.40;99.90;;;;;;5057288;28;20215;-32
2023/03/15 02:26:06;;;;;;;1.83;0.87;;;6.40;99.90;;;;;;5046434;28;20612;-31
2023/03/15 02:28:34;;;;;;;3.23;1.00;;;6.40;99.90;;;;;;5048363;28;20577;-32
2023/03/15 02:31:07;;;;;;;1.67;1.10;;;6.40;99.90;;;;;;5045218;28;20301;-33
2023/03/15 02:33:58;;;;;;;3.63;1.20;;;6.40;99.90;;;;;;5045324;28;20206;-32
2023/03/15 02:36:27;;;;;;;2.63;1.30;;;6.40;99.90;;;;;;5039863;28;20303;-32
2023/03/15 02:38:57;;;;;;;2.37;0.93;;;6.40;99.90;;;;;;5021327;28;20227;-32
2023/03/15 02:41:43;;;;;;;2.20;1.03;;;6.50;99.90;;;;;;5038822;28;20235;-32
2023/03/15 02:44:13;;;;;;;4.67;1.17;;;6.50;99.90;;;;;;5031675;28;20587;-32
2023/03/15 02:46:45;;;;;;;3.10;1.00;;;6.40;99.90;;;;;;5061528;28;20718;-32
2023/03/15 02:49:16;;;;;;;2.37;1.00;;;6.50;99.90;;;;;;5051056;28;20196;-33
2023/03/15 02:51:45;;;;;;;1.43;1.07;;;6.50;99.90;;;;;;5041748;28;20207;-32
2023/03/15 02:54:15;;;;;;;3.20;1.17;;;6.50;99.90;;;;;;5045076;28;20751;-32
2023/03/15 02:56:43;;;;;;;2.53;1.20;;;6.50;99.90;;;;;;5038529;28;20295;-32
2023/03/15 02:59:14;;;;;;;1.53;1.23;;;6.50;99.90;;;;;;5057322;28;20239;-32
2023/03/15 03:01:44;;;;;;;2.83;1.20;;;6.50;99.90;;;;;;5062523;28;20316;-32
2023/03/15 03:04:14;;;;;;;2.30;1.23;;;6.60;99.90;;;;;;5034985;28;20225;-32
2023/03/15 03:06:42;;;;;;;4.53;1.33;;;6.60;99.90;;;;;;5049438;28;20629;-32
2023/03/15 03:09:12;;;;;;;4.73;1.27;;;6.60;99.90;;;;;;5046065;28;20262;-32
2023/03/15 03:11:41;;;;;;;4.70;1.50;;;6.60;99.90;;;;;;5049818;28;20291;-32
2023/03/15 03:14:14;;;;;;;3.03;1.30;;;6.60;99.90;;;;;;5045601;28;20212;-32
2023/03/15 03:16:41;;;;;;;2.77;1.30;;;6.60;99.90;;;;;;5037113;28;20249;-32
2023/03/15 03:19:15;;;;;;;2.53;1.10;;;6.60;99.90;;;;;;5061050;28;20206;-32
2023/03/15 03:21:45;;;;;;;2.90;1.50;;;6.60;99.90;;;;;;5054235;28;20666;-32
2023/03/15 03:24:16;;;;;;;3.67;1.60;;;6.70;99.90;;;;;;5042778;28;20628;-32
2023/03/15 03:26:48;;;;;;;4.53;1.83;;;6.70;99.90;;;;;;5011644;28;20284;-32
2023/03/15 03:29:16;;;;;;;5.13;1.83;;;6.70;99.90;;;;;;5047657;28;20220;-32
2023/03/15 03:31:44;;;;;;;5.27;1.77;;;6.70;99.90;;;;;;5043500;28;20223;-32
2023/03/15 03:34:14;;;;;;;4.50;1.53;;;6.70;99.90;;;;;;5045184;28;20518;-32
2023/03/15 03:36:42;;;;;;;2.83;1.70;;;6.70;99.90;;;;;;5039380;28;20201;-32
2023/03/15 03:39:15;;;;;;;4.67;2.37;;;6.70;99.90;;;;;;5041619;28;20204;-32
2023/03/15 03:41:42;;;;;;;5.40;2.13;;;6.70;99.90;;;;;;5036482;28;20204;-32
2023/03/15 03:44:09;;;;;;;2.70;2.23;;;6.70;99.90;;;;;;5056646;28;20263;-32
2023/03/15 03:46:36;;;;;;;2.30;1.83;;;6.70;99.90;;;;;;5042071;28;20212;-32
2023/03/15 03:49:03;;;;;;;4.03;2.73;;;6.70;99.90;;;;;;5033459;28;20569;-32
2023/03/15 03:51:33;;;;;;;3.20;2.10;;;6.80;99.90;;;;;;5040507;28;20701;-32
2023/03/15 03:54:03;;;;;;;5.30;2.40;;;6.70;99.90;;;;;;5028863;28;20387;-32
2023/03/15 03:56:31;;;;;;;4.30;2.60;;;6.70;99.90;;;;;;5057903;28;20204;-32
2023/03/15 03:59:05;;;;;;;6.30;2.70;;;6.70;99.90;;;;;;5064387;28;20253;-32
2023/03/15 04:01:32;;;;;;;4.33;2.50;;;6.80;99.90;;;;;;5033936;28;20314;-32
2023/03/15 04:04:02;;;;;;;4.80;2.50;;;6.80;99.90;;;;;;5043479;28;20207;-32
2023/03/15 04:06:35;;;;;;;6.13;2.80;;;6.80;99.90;;;;;;5044799;28;20204;-32
2023/03/15 04:09:04;;;;;;;3.60;2.50;;;6.80;99.90;;;;;;5044968;28;20772;-32
2023/03/15 04:11:35;;;;;;;5.37;2.90;;;6.80;99.90;;;;;;5041836;28;20199;-32
2023/03/15 04:14:04;;;;;;;7.43;3.37;;;6.80;99.90;;;;;;5044197;28;20212;-32
2023/03/15 04:16:31;;;;;;;4.23;2.80;;;6.80;99.90;;;;;;5041513;28;20310;-32
2023/03/15 04:19:02;;;;;;;8.30;3.13;;;6.90;99.90;;;;;;5062445;28;20207;-32
2023/03/15 04:21:30;;;;;;;5.70;2.67;;;6.80;99.90;;;;;;5057589;28;20298;-32
2023/03/15 04:24:01;;;;;;;6.53;2.93;;;6.90;99.90;;;;;;5063434;28;20785;-32
2023/03/15 04:26:33;;;;;;;6.60;3.40;;;6.90;99.90;;;;;;5062218;28;20216;-32
2023/03/15 04:29:03;;;;;;;5.13;2.97;;;6.90;99.90;;;;;;5064711;28;20253;-32
2023/03/15 04:31:36;;;;;;;4.97;2.90;;;6.80;99.90;;;;;;5064727;28;20191;-32
2023/03/15 04:34:08;;;;;;;6.87;2.80;;;6.90;99.90;;;;;;5044678;28;20746;-32
2023/03/15 04:36:35;;;;;;;5.17;3.10;;;6.90;99.90;;;;;;5042972;28;20311;-32
2023/03/15 04:39:06;;;;;;;4.37;3.03;;;6.90;99.90;;;;;;5044665;28;20641;-32
2023/03/15 04:41:35;;;;;;;5.77;3.20;;;6.90;99.90;;;;;;5042096;28;20200;-32
2023/03/15 04:44:03;;;;;;;4.80;3.10;;;6.90;99.90;;;;;;5042802;28;20230;-32
2023/03/15 04:46:32;;;;;;;5.03;3.07;;;6.90;99.90;;;;;;5042679;28;20678;-32
2023/03/15 04:49:03;;;;;;;4.93;2.97;;;6.90;99.90;;;;;;5044204;28;20290;-32
2023/03/15 04:51:33;;;;;;;7.33;3.10;;;6.90;99.90;;;;;;5024265;28;20262;-32
2023/03/15 04:54:01;;;;;;;5.60;2.80;;;7.00;99.90;;;;;;5034857;28;20793;-32
2023/03/15 04:56:31;;;;;;;6.53;2.67;;;7.00;99.90;;;;;;5025415;28;20693;-32
2023/03/15 04:59:03;;;;;;;4.50;2.47;;;6.90;99.90;;;;;;5029315;28;20232;-33
2023/03/15 05:01:33;;;;;;;5.50;2.97;;;6.90;99.90;;;;;;5057899;28;20224;-32
2023/03/15 05:04:03;;;;;;;5.07;2.57;;;6.90;99.90;;;;;;5039440;28;20715;-32
2023/03/15 05:06:30;;;;;;;6.23;2.97;;;6.90;99.90;;;;;;5033771;28;20223;-32
2023/03/15 05:08:57;;;;;;;5.63;3.20;;;6.90;99.90;;;;;;5063476;28;20202;-33
2023/03/15 05:11:27;;;;;;;4.47;2.57;;;6.90;99.90;;;;;;5041988;28;20204;-32
2023/03/15 05:14:02;;;;;;;5.47;3.20;;;6.90;99.90;;;;;;5047054;28;20269;-32
2023/03/15 05:16:33;;;;;;;6.90;2.93;;;6.90;99.90;;;;;;5044809;28;20236;-32
2023/03/15 05:19:00;;;;;;;7.13;3.23;;;6.90;99.90;;;;;;5046721;28;20238;-32
2023/03/15 05:21:31;;;;;;;4.50;3.17;;;6.90;99.90;;;;;;5044659;28;20334;-33
2023/03/15 05:24:03;;;;;;;5.07;3.63;;;6.80;99.90;;;;;;5046204;28;20196;-32
2023/03/15 05:26:33;;;;;;;7.90;3.30;;;6.80;99.90;;;;;;5045632;28;20255;-32
2023/03/15 05:29:00;;;;;;;4.80;3.30;;;6.80;99.90;;;;;;5054055;28;20718;-32
2023/03/15 05:31:35;;;;;;;6.00;3.60;;;6.80;99.90;;;;;;5038775;28;20208;-32
2023/03/15 05:34:08;;;;;;;7.20;3.70;;;6.70;99.90;;;;;;5045084;28;20676;-33
2023/03/15 05:36:40;;;;;;;9.57;3.87;;;6.70;99.90;;;;;;5041332;28;20223;-32
2023/03/15 05:39:08;;;;;;;7.00;3.90;;;6.60;99.90;;;;;;5045724;28;20266;-32
2023/03/15 05:41:40;;;;;;;7.90;3.90;;;6.60;99.90;;;;;;5044304;28;20300;-32
2023/03/15 05:44:10;;;;;;;6.73;3.80;;;6.60;99.90;;;;;;5044684;28;20549;-32
2023/03/15 05:46:39;;;;;;;5.90;3.60;;;6.50;99.90;;;;;;5044630;28;20208;-32
2023/03/15 05:49:08;;;;;;;7.53;4.23;;;6.50;99.90;;;;;;5042728;28;20200;-33
2023/03/15 05:51:38;;;;;;;6.67;3.73;;;6.40;99.90;;;;;;5044426;28;20204;-32
2023/03/15 05:54:12;;;;;;;6.13;4.40;;;6.40;99.90;;;;;;5045906;28;20240;-32
2023/03/15 05:56:39;;;;;;;9.23;4.90;;;6.30;99.90;;;;;;5045881;28;20327;-32
2023/03/15 05:59:11;;;;;;;6.07;4.63;;;6.20;99.90;;;;;;5045899;28;20287;-32
2023/03/15 06:01:43;;;;;;;5.93;4.27;;;6.20;99.90;;;;;;5041894;28;20299;-32
2023/03/15 06:04:10;;;;;;;6.00;4.53;;;6.10;99.90;;;;;;5041811;28;20314;-32
2023/03/15 06:06:40;;;;;;;9.47;5.67;;;6.10;99.90;;;;;;5042102;28;20251;-32
2023/03/15 06:09:09;;;;;;;8.60;4.63;;;6.00;99.90;;;;;;5042419;28;20295;-32
2023/03/15 06:11:36;;;;;;;6.87;4.97;;;6.00;99.90;;;;;;5024671;28;20669;-33
2023/03/15 06:14:08;;;;;;;9.40;5.80;;;6.00;99.90;;;;;;5044223;28;20208;-32
2023/03/15 06:16:38;;;;;;;11.43;5.90;;;5.90;99.90;;;;;;5042348;28;20583;-32
2023/03/15 06:19:05;;;;;;;7.93;5.23;;;5.90;99.90;;;;;;5038531;28;20690;-32
2023/03/15 06:21:35;;;;;;;8.73;5.90;;;5.90;99.90;;;;;;5043904;28;20875;-32
2023/03/15 06:24:05;;;;;;;9.53;6.10;;;5.90;99.90;;;;;;5043230;28;20211;-32
2023/03/15 06:26:32;;;;;;;9.17;5.73;;;5.90;99.90;;;;;;5039221;28;20221;-32
2023/03/15 06:29:02;;;;;;;9.63;5.97;;;5.90;99.90;;;;;;5029037;28;20209;-32
2023/03/15 06:31:31;;;;;;;8.87;6.17;;;5.90;99.90;;;;;;5033210;28;20196;-32
2023/03/15 06:34:05;;;;;;;8.17;6.07;;;5.90;99.90;;;;;;5046034;28;20204;-32
2023/03/15 06:36:35;;;;;;;9.67;6.30;;;5.80;99.90;;;;;;5043381;28;20702;-32
2023/03/15 06:39:04;;;;;;;8.33;5.83;;;5.80;99.90;;;;;;5031073;28;21146;-32
2023/03/15 06:41:31;;;;;;;10.27;6.40;;;5.80;99.90;;;;;;5042306;28;20211;-32
2023/03/15 06:44:01;;;;;;;11.00;6.97;;;5.80;99.90;;;;;;5049864;28;20273;-32
2023/03/15 06:46:30;;;;;;;11.77;6.80;;;5.80;99.90;;;;;;5042797;28;20229;-32
2023/03/15 06:48:58;;;;;;;11.63;6.93;;;5.80;99.90;;;;;;5027295;28;20228;-33
2023/03/15 06:51:27;;;;;;;11.63;6.97;;;5.80;99.90;;;;;;5028744;28;20205;-32
2023/03/15 06:53:57;;;;;;;8.37;6.67;;;5.80;99.90;;;;;;5041994;28;20327;-33
2023/03/15 06:56:26;;;;;;;12.97;7.63;;;5.90;99.90;;;;;;5027086;28;20573;-33
2023/03/15 06:58:55;;;;;;;11.57;7.13;;;5.90;99.90;;;;;;5045673;28;20239;-33
2023/03/15 07:01:25;;;;;;;10.40;6.53;;;5.90;99.90;;;;;;5052861;28;20219;-33
2023/03/15 07:03:55;;;;;;;12.00;7.13;;;5.90;99.90;;;;;;5044566;28;20230;-32
2023/03/15 07:06:22;;;;;;;9.70;7.70;;;5.90;99.90;;;;;;5033974;28;20348;-32
2023/03/15 07:08:54;;;;;;;9.13;7.43;;;5.90;99.90;;;;;;5038265;28;20637;-33
2023/03/15 07:11:24;;;;;;;11.57;7.90;;;5.90;99.90;;;;;;5041865;28;20311;-32
2023/03/15 07:13:51;;;;;;;14.73;8.03;;;5.90;99.90;;;;;;5039903;28;20208;-33
2023/03/15 07:16:22;;;;;;;9.80;7.13;;;6.00;99.90;;;;;;5026417;28;20709;-33
2023/03/15 07:18:50;;;;;;;11.53;8.40;;;6.00;99.90;;;;;;5041347;28;20674;-32
2023/03/15 07:21:19;;;;;;;12.57;7.77;;;6.00;99.90;;;;;;5044165;28;20200;-32
2023/03/15 07:23:49;;;;;;;12.87;8.37;;;6.00;99.90;;;;;;5044647;28;20266;-32
2023/03/15 07:26:16;;;;;;;13.80;8.00;;;6.10;99.90;;;;;;5043039;28;20595;-33
2023/03/15 07:28:43;;;;;;;14.30;8.53;;;6.10;99.90;;;;;;5042445;28;20675;-33
2023/03/15 07:31:13;;;;;;;11.53;7.30;;;6.10;99.90;;;;;;5043380;28;20242;-33
2023/03/15 07:33:43;;;;;;;13.17;7.67;;;6.20;99.90;;;;;;5041828;28;20682;-33
2023/03/15 07:36:10;;;;;;;14.63;8.07;;;6.20;99.90;;;;;;5044042;28;20215;-33
2023/03/15 07:38:38;;;;;;;11.80;8.00;;;6.20;99.90;;;;;;5055415;28;20228;-33
2023/03/15 07:41:10;;;;;;;15.73;8.10;;;6.30;99.90;;;;;;5042510;28;20299;-33
2023/03/15 07:43:39;;;;;;;12.73;7.70;;;6.30;99.90;;;;;;5042211;28;20603;-33
2023/03/15 07:46:06;;;;;;;10.47;7.77;;;6.30;99.90;;;;;;5042201;28;20227;-33
2023/03/15 07:48:38;;;;;;;11.13;7.83;;;6.40;99.90;;;;;;5043406;28;20297;-33
2023/03/15 07:51:05;;;;;;;15.93;8.33;;;6.40;99.90;;;;;;5041975;28;20284;-33
2023/03/15 07:53:35;;;;;;;12.73;8.07;;;6.50;99.90;;;;;;5040808;28;20326;-33
2023/03/15 07:56:05;;;;;;;9.50;6.60;;;6.60;99.90;;;;;;5041471;28;20724;-32
2023/03/15 07:58:37;;;;;;;12.60;6.47;;;6.60;99.90;;;;;;5059364;28;20216;-33
2023/03/15 08:01:06;;;;;;;8.10;6.50;;;6.60;99.90;;;;;;5034894;28;20551;-33
2023/03/15 08:03:38;;;;;;;11.27;6.83;;;6.70;99.90;;;;;;5037533;28;20227;-40
2023/03/15 08:06:05;;;;;;;9.97;6.53;;;6.80;99.90;;;;;;5044436;28;20350;-33
2023/03/15 08:08:37;;;;;;;10.10;6.50;;;6.80;99.90;;;;;;5043003;28;20204;-33
2023/03/15 08:11:07;;;;;;;9.83;7.17;;;6.80;99.90;;;;;;5044067;28;20226;-33
2023/03/15 08:13:36;;;;;;;9.27;6.20;;;6.80;99.90;;;;;;5044275;28;20235;-33
2023/03/15 08:16:06;;;;;;;10.43;6.53;;;6.90;99.90;;;;;;5060192;28;20306;-33
2023/03/15 08:18:36;;;;;;;10.93;6.00;;;6.90;99.90;;;;;;5044067;28;20204;-33
2023/03/15 08:21:08;;;;;;;9.73;6.57;;;6.90;99.90;;;;;;5045010;28;20276;-33
2023/03/15 08:23:40;;;;;;;10.67;6.27;;;6.90;99.90;;;;;;5042250;28;20262;-33
2023/03/15 08:26:09;;;;;;;12.67;6.83;;;6.90;99.90;;;;;;5043817;28;20357;-33
2023/03/15 08:28:37;;;;;;;11.80;7.60;;;7.00;99.90;;;;;;5040764;28;20196;-33
2023/03/15 08:31:12;;;;;;;7.80;6.23;;;7.00;99.90;;;;;;5043237;28;20287;-33
2023/03/15 08:33:42;;;;;;;14.80;7.40;;;7.10;99.90;;;;;;5042313;28;20222;-33
2023/03/15 08:36:10;;;;;;;11.23;7.23;;;7.20;99.90;;;;;;5036432;28;20212;-33
2023/03/15 08:38:43;;;;;;;7.97;5.47;;;7.20;99.90;;;;;;5037193;28;20205;-33
2023/03/15 08:41:11;;;;;;;10.90;6.03;;;7.20;99.90;;;;;;5036070;28;20212;-33
2023/03/15 08:43:40;;;;;;;9.67;6.07;;;7.30;99.90;;;;;;5043321;28;20663;-33
2023/03/15 08:46:09;;;;;;;9.37;5.57;;;7.40;99.90;;;;;;5041614;28;20311;-33
2023/03/15 08:48:39;;;;;;;9.40;5.30;;;7.40;99.90;;;;;;5045512;28;20215;-33
2023/03/15 08:51:07;;;;;;;8.87;4.60;;;7.50;99.90;;;;;;5046413;28;20211;-33
2023/03/15 08:53:35;;;;;;;6.60;4.40;;;7.60;99.90;;;;;;5039565;28;21030;-33
2023/03/15 08:56:07;;;;;;;5.33;3.83;;;7.70;99.90;;;;;;5040988;28;20662;-33
2023/03/15 08:58:35;;;;;;;5.23;3.67;;;7.70;99.90;;;;;;5031563;28;20205;-33
2023/03/15 09:01:04;;;;;;;3.80;3.37;;;7.70;99.90;;;;;;5047757;28;20200;-33
2023/03/15 09:03:31;;;;;;;8.40;4.77;;;7.80;99.90;;;;;;5046896;28;20630;-33
2023/03/15 09:06:02;;;;;;;6.23;4.87;;;7.80;99.90;;;;;;5025746;28;20307;-33
2023/03/15 09:08:32;;;;;;;8.23;4.57;;;7.80;99.90;;;;;;5045211;28;20225;-33
2023/03/15 09:11:02;;;;;;;7.90;3.73;;;7.80;99.90;;;;;;5044994;28;20212;-33
2023/03/15 09:13:34;;;;;;;6.60;3.80;;;7.80;99.90;;;;;;5029034;28;20262;-33
2023/03/15 09:16:04;;;;;;;6.03;4.23;;;7.80;99.90;;;;;;5043423;28;20242;-33
2023/03/15 09:18:32;;;;;;;7.57;2.77;;;7.80;99.90;;;;;;5026761;28;20212;-33
2023/03/15 09:21:06;;;;;;;5.70;2.90;;;7.70;99.90;;;;;;5029055;28;20281;-33
2023/03/15 09:23:38;;;;;;;4.43;3.13;;;7.70;99.90;;;;;;5045573;28;20211;-33
2023/03/15 09:26:11;;;;;;;6.23;2.80;;;7.60;99.90;;;;;;5046046;28;20251;-33
2023/03/15 09:28:42;;;;;;;4.40;2.90;;;7.70;99.90;;;;;;5041333;28;20196;-33
2023/03/15 09:31:10;;;;;;;8.43;4.03;;;7.70;99.90;;;;;;5046707;28;20211;-33
2023/03/15 09:33:40;;;;;;;4.87;3.20;;;7.70;99.90;;;;;;5045023;28;20730;-33
2023/03/15 09:36:07;;;;;;;5.50;3.40;;;7.70;99.90;;;;;;5045101;28;20551;-33
2023/03/15 09:38:40;;;;;;;4.87;3.47;;;7.70;99.90;;;;;;5045522;28;20200;-33
2023/03/15 09:41:37;;;;;;;6.93;3.60;;;7.70;99.90;;;;;;5044349;28;20204;-33
2023/03/15 09:44:27;;;;;;;6.30;3.60;;;7.80;99.90;;;;;;5046812;28;20219;-33
2023/03/15 09:47:32;;;;;;;5.23;3.57;;;7.80;99.90;;;;;;5041099;28;20289;-33
2023/03/15 09:50:15;;;;;;;3.90;3.10;;;7.90;99.90;;;;;;4996249;28;20358;-33
2023/03/15 09:52:44;;;;;;;6.80;3.50;;;7.90;99.90;;;;;;5045940;28;20208;-33
2023/03/15 09:55:24;;;;;;;5.90;3.03;;;8.00;99.90;;;;;;5046343;28;20228;-33
2023/03/15 09:57:57;;;;;;;5.53;2.80;;;8.10;99.90;;;;;;5046353;28;20216;-33
2023/03/15 10:01:01;;;;;;;7.47;3.00;;;8.20;99.90;;;;;;5043923;28;20330;-33
2023/03/15 10:03:34;;;;;;;5.00;2.63;;;8.30;99.90;;;;;;5026577;28;20571;-33
2023/03/15 10:06:16;;;;;;;5.40;2.70;;;8.40;99.90;;;;;;5044948;28;20242;-33
2023/03/15 10:08:47;;;;;;;4.87;2.70;;;8.40;99.90;;;;;;5044261;28;20204;-33
2023/03/15 10:11:33;;;;;;;4.90;2.13;;;8.50;99.90;;;;;;5039594;28;20543;-33
2023/03/15 10:14:46;;;;;;;3.77;2.20;;;8.50;99.90;;;;;;5043651;28;20197;-32
2023/03/15 10:17:20;;;;;;;5.90;2.50;;;8.60;99.90;;;;;;5036983;28;20281;-33
2023/03/15 10:20:00;;;;;;;4.30;2.33;;;8.60;99.90;;;;;;5039333;28;20603;-33
2023/03/15 10:22:32;;;;;;;3.07;2.30;;;8.70;99.90;;;;;;5041012;28;20195;-32
2023/03/15 10:25:14;;;;;;;3.47;2.30;;;8.70;99.90;;;;;;5035460;28;20227;-32
2023/03/15 10:27:59;;;;;;;4.43;2.80;;;8.70;99.90;;;;;;5043117;28;20224;-33
2023/03/15 10:30:33;;;;;;;5.07;2.67;;;8.80;99.90;;;;;;5047859;28;20200;-33
2023/03/15 10:33:22;;;;;;;3.20;2.30;;;8.80;99.90;;;;;;5042223;28;20239;-33
2023/03/15 10:35:49;;;;;;;3.17;2.27;;;8.80;99.90;;;;;;5051052;28;20216;-33
2023/03/15 10:38:24;;;;;;;5.00;2.50;;;8.90;99.90;;;;;;5036068;28;20204;-33
2023/03/15 10:40:52;;;;;;;6.03;2.57;;;8.90;99.90;;;;;;5040482;28;20207;-33
2023/03/15 10:43:28;;;;;;;4.13;2.17;;;8.90;99.90;;;;;;5045191;28;20696;-33
2023/03/15 10:46:01;;;;;;;4.97;2.50;;;8.90;99.90;;;;;;5036577;28;20224;-33
2023/03/15 10:48:34;;;;;;;5.07;1.73;;;9.00;99.90;;;;;;5038007;28;20234;-33
2023/03/15 10:51:12;;;;;;;2.03;1.30;;;9.00;99.90;;;;;;5050581;28;20467;-37
2023/03/15 10:54:19;;;;;;;2.80;1.70;;;9.00;99.90;;;;;;5045146;28;20239;-33
2023/03/15 10:56:53;;;;;;;4.67;1.50;;;9.00;99.90;;;;;;5042562;28;20215;-33
2023/03/15 10:59:25;;;;;;;4.03;1.67;;;9.00;99.90;;;;;;5043606;28;20216;-33
2023/03/15 11:02:13;;;;;;;3.97;1.43;;;9.00;99.90;;;;;;5043269;28;20742;-33
2023/03/15 11:04:49;;;;;;;5.23;1.83;;;9.00;99.90;;;;;;5036349;28;20204;-32
2023/03/15 11:07:17;;;;;;;2.03;1.10;;;9.00;99.90;;;;;;5045013;28;20332;-33
2023/03/15 11:09:53;;;;;;;2.20;1.10;;;9.00;99.90;;;;;;5042988;28;20287;-33
2023/03/15 11:12:28;;;;;;;2.80;1.33;;;9.00;99.90;;;;;;5045401;28;20208;-33
2023/03/15 11:15:06;;;;;;;3.30;1.40;;;9.00;99.90;;;;;;5041978;28;20210;-33
2023/03/15 11:17:43;;;;;;;2.03;1.13;;;9.00;99.90;;;;;;5041930;28;20227;-33
2023/03/15 11:20:31;;;;;;;1.83;1.30;;;9.10;99.90;;;;;;5043227;28;20306;-33
2023/03/15 11:23:13;;;;;;;2.20;1.20;;;9.10;99.90;;;;;;5039749;28;20200;-33
2023/03/15 11:25:43;;;;;;;2.23;1.23;;;9.10;99.90;;;;;;5042289;28;20633;-33
2023/03/15 11:28:21;;;;;;;1.23;0.90;;;9.20;99.90;;;;;;5038979;28;20240;-32
2023/03/15 11:30:53;;;;;;;1.87;1.00;;;9.20;99.90;;;;;;5041467;28;20270;-33
2023/03/15 11:33:50;;;;;;;2.57;1.00;;;9.20;99.90;;;;;;5041463;28;20302;-33
2023/03/15 11:36:21;;;;;;;3.17;0.90;;;9.10;99.90;;;;;;5038994;28;21603;-33
2023/03/15 11:38:49;;;;;;;2.87;1.20;;;9.10;99.90;;;;;;5039445;28;20642;-32
2023/03/15 11:41:59;;;;;;;1.47;1.37;;;9.10;99.90;;;;;;5042383;28;20200;-33
2023/03/15 11:44:34;;;;;;;2.30;1.43;;;9.20;99.90;;;;;;4998714;28;20714;-32
2023/03/15 11:47:33;;;;;;;1.87;1.10;;;9.20;99.90;;;;;;4997259;28;20225;-33
2023/03/15 11:50:03;;;;;;;4.97;2.00;;;9.30;99.90;;;;;;5030743;28;20203;-34
2023/03/15 11:52:33;;;;;;;3.57;1.63;;;9.30;99.90;;;;;;5041019;28;20223;-34
2023/03/15 11:55:02;;;;;;;3.37;1.30;;;9.30;99.90;;;;;;5042072;28;20347;-34
2023/03/15 11:57:40;;;;;;;2.30;1.73;;;9.30;99.90;;;;;;5042488;28;20204;-34
2023/03/15 12:00:25;;;;;;;2.90;1.90;;;9.40;99.90;;;;;;5042711;28;20269;-34
2023/03/15 12:02:59;;;;;;;6.87;3.00;;;9.40;99.90;;;;;;5042578;28;20204;-34
2023/03/15 12:05:49;;;;;;;2.67;1.70;;;9.30;99.90;;;;;;5047445;28;20208;-34
2023/03/15 12:08:18;;;;;;;3.83;1.90;;;9.30;99.90;;;;;;5038353;28;20244;-33
2023/03/15 12:10:48;;;;;;;4.63;1.83;;;9.30;99.90;;;;;;5041549;28;20216;-32
2023/03/15 12:13:34;;;;;;;5.00;1.90;;;9.20;99.90;;;;;;5031373;28;20294;-33
2023/03/15 12:16:05;;;;;;;3.03;1.63;;;9.20;99.90;;;;;;5040181;28;20226;-33
2023/03/15 12:18:45;;;;;;;2.40;1.33;;;9.20;99.90;;;;;;5040740;28;20319;-33
2023/03/15 12:21:17;;;;;;;1.60;1.33;;;9.20;99.90;;;;;;5046861;28;20239;-33
2023/03/15 12:24:05;;;;;;;3.70;2.03;;;9.30;99.90;;;;;;5046831;28;20220;-33
2023/03/15 12:26:57;;;;;;;2.43;1.80;;;9.30;99.90;;;;;;5033309;28;20753;-32
2023/03/15 12:29:31;;;;;;;2.47;1.60;;;9.40;99.90;;;;;;5047088;28;20196;-34
2023/03/15 12:32:01;;;;;;;5.03;2.00;;;9.40;99.90;;;;;;5038188;28;20629;-33
2023/03/15 12:34:57;;;;;;;3.53;1.40;;;9.50;99.90;;;;;;5046997;28;20200;-32
2023/03/15 12:37:27;;;;;;;3.00;1.83;;;9.50;99.90;;;;;;5039970;28;20787;-33
2023/03/15 12:40:21;;;;;;;2.77;1.50;;;9.50;99.90;;;;;;5045848;28;20731;-32
2023/03/15 12:42:53;;;;;;;3.23;1.73;;;9.60;99.90;;;;;;5042206;28;20386;-32
2023/03/15 12:45:39;;;;;;;3.00;1.80;;;9.60;99.90;;;;;;5045720;28;20303;-32
2023/03/15 12:48:11;;;;;;;3.23;1.33;;;9.60;99.90;;;;;;5045481;28;20318;-32
2023/03/15 12:50:43;;;;;;;3.77;1.60;;;9.70;99.90;;;;;;5061953;28;20235;-32
2023/03/15 12:53:29;;;;;;;1.90;1.40;;;9.80;99.90;;;;;;5053469;28;20594;-32
2023/03/15 12:56:17;;;;;;;2.60;1.30;;;9.90;99.90;;;;;;5043103;28;20200;-32
2023/03/15 12:58:57;;;;;;;3.13;1.40;;;9.90;99.90;;;;;;5028666;28;20213;-33
2023/03/15 13:01:25;;;;;;;2.73;1.50;;;10.00;99.90;;;;;;5040519;28;20212;-32
2023/03/15 13:03:57;;;;;;;2.13;1.50;;;10.00;99.90;;;;;;5046330;28;20216;-32
2023/03/15 13:06:36;;;;;;;1.90;1.30;;;10.10;99.90;;;;;;5041798;28;20539;-33
2023/03/15 13:09:44;;;;;;;2.20;1.20;;;10.10;99.90;;;;;;5047783;28;20245;-32
2023/03/15 13:12:28;;;;;;;2.07;1.17;;;10.20;99.90;;;;;;5050466;28;20291;-32
2023/03/15 13:15:36;;;;;;;5.03;1.80;;;10.20;99.90;;;;;;5056826;28;20200;-32
2023/03/15 13:18:22;;;;;;;1.83;1.30;;;10.20;99.90;;;;;;5006951;28;20231;-32
2023/03/15 13:21:13;;;;;;;3.43;1.27;;;10.20;99.90;;;;;;5026149;28;20251;-33
2023/03/15 13:23:51;;;;;;;3.20;1.40;;;10.20;99.90;;;;;;5051281;28;20746;-31
2023/03/15 13:26:37;;;;;;;3.27;1.50;;;10.20;99.90;;;;;;5045573;28;20242;-32